sensor_id;sensor_type;location;lat;lon;timestamp;pressure;altitude;pressure_sealevel;temperature;humidity
59971;BME280;45825;45.434;9.116;2023-04-02T00:01:49;99217.47;;;13.71;34.68
59971;BME280;45825;45.434;9.116;2023-04-02T00:04:22;99213.16;;;13.70;34.63
59971;BME280;45825;45.434;9.116;2023-04-02T00:06:54;99223.25;;;13.65;34.77
59971;BME280;45825;45.434;9.116;2023-04-02T00:09:29;99224.53;;;13.92;34.78
59971;BME280;45825;45.434;9.116;2023-04-02T00:11:56;99219.31;;;13.80;35.05
59971;BME280;45825;45.434;9.116;2023-04-02T00:14:27;99219.41;;;13.69;35.36
59971;BME280;45825;45.434;9.116;2023-04-02T00:16:54;99209.97;;;13.76;35.10
59971;BME280;45825;45.434;9.116;2023-04-02T00:19:29;99210.63;;;13.68;35.51
59971;BME280;45825;45.434;9.116;2023-04-02T00:21:56;99210.63;;;13.68;35.61
59971;BME280;45825;45.434;9.116;2023-04-02T00:24:23;99208.94;;;13.67;36.22
59971;BME280;45825;45.434;9.116;2023-04-02T00:26:50;99199.38;;;13.76;36.26
59971;BME280;45825;45.434;9.116;2023-04-02T00:29:16;99206.88;;;13.71;36.47
59971;BME280;45825;45.434;9.116;2023-04-02T00:31:48;99209.66;;;13.69;36.42
59971;BME280;45825;45.434;9.116;2023-04-02T00:36:45;99221.19;;;13.68;37.18
59971;BME280;45825;45.434;9.116;2023-04-02T00:39:21;99226.63;;;13.67;37.25
59971;BME280;45825;45.434;9.116;2023-04-02T00:41:47;99235.97;;;13.71;37.11
59971;BME280;45825;45.434;9.116;2023-04-02T00:44:15;99239.53;;;13.60;37.77
59971;BME280;45825;45.434;9.116;2023-04-02T00:46:46;99239.25;;;13.63;37.66
59971;BME280;45825;45.434;9.116;2023-04-02T00:49:33;99233.44;;;13.69;38.16
59971;BME280;45825;45.434;9.116;2023-04-02T00:52:08;99235.97;;;13.71;37.63
59971;BME280;45825;45.434;9.116;2023-04-02T00:54:52;99235.19;;;13.59;38.26
59971;BME280;45825;45.434;9.116;2023-04-02T00:57:21;99241.31;;;13.60;38.44
59971;BME280;45825;45.434;9.116;2023-04-02T01:00:10;99236.16;;;13.58;38.46
59971;BME280;45825;45.434;9.116;2023-04-02T01:02:40;99241.25;;;13.71;39.42
59971;BME280;45825;45.434;9.116;2023-04-02T01:10:41;99250.38;;;13.88;42.35
59971;BME280;45825;45.434;9.116;2023-04-02T01:13:31;99250.69;;;13.95;44.45
59971;BME280;45825;45.434;9.116;2023-04-02T01:16:07;99251.28;;;13.99;45.78
59971;BME280;45825;45.434;9.116;2023-04-02T01:19:03;99250.84;;;13.93;47.88
59971;BME280;45825;45.434;9.116;2023-04-02T01:24:18;99258.31;;;14.09;48.86
59971;BME280;45825;45.434;9.116;2023-04-02T01:26:56;99261.06;;;14.08;49.20
59971;BME280;45825;45.434;9.116;2023-04-02T01:29:28;99257.72;;;14.06;50.53
59971;BME280;45825;45.434;9.116;2023-04-02T01:31:59;99263.16;;;14.14;51.02
59971;BME280;45825;45.434;9.116;2023-04-02T01:34:26;99258.03;;;14.13;52.07
59971;BME280;45825;45.434;9.116;2023-04-02T01:37:04;99262.75;;;14.09;53.42
59971;BME280;45825;45.434;9.116;2023-04-02T01:42:27;99260.22;;;14.07;54.89
59971;BME280;45825;45.434;9.116;2023-04-02T01:45:03;99265.25;;;14.10;55.11
59971;BME280;45825;45.434;9.116;2023-04-02T01:47:29;99261.75;;;14.10;54.77
59971;BME280;45825;45.434;9.116;2023-04-02T01:49:57;99261.75;;;14.10;54.84
59971;BME280;45825;45.434;9.116;2023-04-02T01:52:37;99270.00;;;14.17;54.62
59971;BME280;45825;45.434;9.116;2023-04-02T01:55:04;99272.22;;;14.11;54.92
59971;BME280;45825;45.434;9.116;2023-04-02T01:57:30;99276.25;;;14.06;54.89
59971;BME280;45825;45.434;9.116;2023-04-02T01:59:58;99278.50;;;14.10;54.86
59971;BME280;45825;45.434;9.116;2023-04-02T02:02:24;99289.50;;;14.16;53.84
59971;BME280;45825;45.434;9.116;2023-04-02T02:04:50;99291.56;;;14.12;53.59
59971;BME280;45825;45.434;9.116;2023-04-02T02:07:18;99300.06;;;14.16;53.49
59971;BME280;45825;45.434;9.116;2023-04-02T02:09:45;99301.34;;;14.21;53.92
59971;BME280;45825;45.434;9.116;2023-04-02T02:12:13;99303.44;;;14.18;53.65
59971;BME280;45825;45.434;9.116;2023-04-02T02:14:44;99310.66;;;14.16;52.96
59971;BME280;45825;45.434;9.116;2023-04-02T02:17:16;99310.66;;;14.16;53.17
59971;BME280;45825;45.434;9.116;2023-04-02T02:19:47;99314.28;;;14.15;52.53
59971;BME280;45825;45.434;9.116;2023-04-02T02:22:30;99321.38;;;14.14;52.50
59971;BME280;45825;45.434;9.116;2023-04-02T02:24:58;99331.94;;;14.14;52.71
59971;BME280;45825;45.434;9.116;2023-04-02T02:29:54;99339.00;;;14.04;53.18
59971;BME280;45825;45.434;9.116;2023-04-02T02:32:22;99343.44;;;14.03;52.77
59971;BME280;45825;45.434;9.116;2023-04-02T02:34:57;99339.25;;;14.01;53.03
59971;BME280;45825;45.434;9.116;2023-04-02T02:37:34;99346.44;;;13.89;53.39
59971;BME280;45825;45.434;9.116;2023-04-02T02:40:02;99345.66;;;13.98;53.09
59971;BME280;45825;45.434;9.116;2023-04-02T02:42:37;99349.72;;;14.02;53.51
59971;BME280;45825;45.434;9.116;2023-04-02T02:45:05;99349.63;;;13.92;54.44
59971;BME280;45825;45.434;9.116;2023-04-02T02:47:37;99356.94;;;14.00;54.59
59971;BME280;45825;45.434;9.116;2023-04-02T02:50:13;99344.31;;;14.04;54.48
59971;BME280;45825;45.434;9.116;2023-04-02T02:52:45;99353.19;;;14.03;54.99
59971;BME280;45825;45.434;9.116;2023-04-02T02:55:15;99354.16;;;14.02;55.68
59971;BME280;45825;45.434;9.116;2023-04-02T02:58:10;99361.91;;;13.93;56.71
59971;BME280;45825;45.434;9.116;2023-04-02T03:00:35;99364.78;;;13.90;57.16
59971;BME280;45825;45.434;9.116;2023-04-02T03:03:06;99365.31;;;13.84;57.56
59971;BME280;45825;45.434;9.116;2023-04-02T03:05:34;99366.72;;;13.88;58.20
59971;BME280;45825;45.434;9.116;2023-04-02T03:08:01;99378.59;;;13.94;58.03
59971;BME280;45825;45.434;9.116;2023-04-02T03:10:47;99384.88;;;13.93;57.81
59971;BME280;45825;45.434;9.116;2023-04-02T03:16:13;99393.19;;;13.88;58.35
59971;BME280;45825;45.434;9.116;2023-04-02T03:18:46;99396.53;;;13.90;58.85
59971;BME280;45825;45.434;9.116;2023-04-02T03:21:21;99393.06;;;13.90;57.78
59971;BME280;45825;45.434;9.116;2023-04-02T03:23:56;99404.22;;;13.93;57.88
59971;BME280;45825;45.434;9.116;2023-04-02T03:26:31;99403.88;;;13.87;57.89
59971;BME280;45825;45.434;9.116;2023-04-02T03:29:12;99404.84;;;13.86;58.21
59971;BME280;45825;45.434;9.116;2023-04-02T03:34:48;99411.63;;;13.78;58.27
59971;BME280;45825;45.434;9.116;2023-04-02T03:37:21;99412.44;;;13.79;58.21
59971;BME280;45825;45.434;9.116;2023-04-02T03:42:48;99413.78;;;13.73;58.50
59971;BME280;45825;45.434;9.116;2023-04-02T03:45:19;99422.56;;;13.74;58.94
59971;BME280;45825;45.434;9.116;2023-04-02T03:47:51;99415.78;;;13.81;58.03
59971;BME280;45825;45.434;9.116;2023-04-02T03:52:47;99416.38;;;13.85;57.92
59971;BME280;45825;45.434;9.116;2023-04-02T03:55:17;99413.41;;;13.78;58.61
59971;BME280;45825;45.434;9.116;2023-04-02T03:57:51;99417.06;;;13.65;59.06
59971;BME280;45825;45.434;9.116;2023-04-02T04:00:26;99419.22;;;13.72;59.13
59971;BME280;45825;45.434;9.116;2023-04-02T04:02:58;99419.44;;;13.68;58.98
59971;BME280;45825;45.434;9.116;2023-04-02T04:05:32;99421.97;;;13.70;59.00
59971;BME280;45825;45.434;9.116;2023-04-02T04:08:07;99434.56;;;13.78;59.32
59971;BME280;45825;45.434;9.116;2023-04-02T04:10:38;99432.72;;;13.57;59.60
59971;BME280;45825;45.434;9.116;2023-04-02T04:13:08;99432.22;;;13.63;59.30
59971;BME280;45825;45.434;9.116;2023-04-02T04:15:40;99428.13;;;13.59;59.97
59971;BME280;45825;45.434;9.116;2023-04-02T04:18:14;99434.75;;;13.53;59.88
59971;BME280;45825;45.434;9.116;2023-04-02T04:20:50;99440.41;;;13.49;59.87
59971;BME280;45825;45.434;9.116;2023-04-02T04:23:33;99443.31;;;13.46;60.41
59971;BME280;45825;45.434;9.116;2023-04-02T04:28:51;99448.94;;;13.30;60.50
59971;BME280;45825;45.434;9.116;2023-04-02T04:31:35;99456.88;;;13.30;60.71
59971;BME280;45825;45.434;9.116;2023-04-02T04:34:10;99463.50;;;13.24;61.13
59971;BME280;45825;45.434;9.116;2023-04-02T04:36:55;99458.34;;;13.22;61.60
59971;BME280;45825;45.434;9.116;2023-04-02T04:39:49;99463.84;;;13.31;61.13
59971;BME280;45825;45.434;9.116;2023-04-02T04:42:21;99470.44;;;13.36;61.45
59971;BME280;45825;45.434;9.116;2023-04-02T04:45:00;99473.56;;;13.41;61.17
59971;BME280;45825;45.434;9.116;2023-04-02T04:47:48;99475.72;;;13.36;61.51
59971;BME280;45825;45.434;9.116;2023-04-02T04:52:45;99483.31;;;13.18;61.94
59971;BME280;45825;45.434;9.116;2023-04-02T04:55:46;99487.78;;;13.18;62.52
59971;BME280;45825;45.434;9.116;2023-04-02T05:00:58;99496.88;;;13.25;62.11
59971;BME280;45825;45.434;9.116;2023-04-02T05:03:41;99496.16;;;13.23;62.53
59971;BME280;45825;45.434;9.116;2023-04-02T05:06:14;99505.75;;;13.12;62.83
59971;BME280;45825;45.434;9.116;2023-04-02T05:08:44;99506.84;;;13.10;63.22
59971;BME280;45825;45.434;9.116;2023-04-02T05:11:22;99510.78;;;13.04;63.16
59971;BME280;45825;45.434;9.116;2023-04-02T05:13:53;99519.47;;;13.06;62.94
59971;BME280;45825;45.434;9.116;2023-04-02T05:16:27;99513.22;;;13.07;63.00
59971;BME280;45825;45.434;9.116;2023-04-02T05:19:09;99526.44;;;13.07;63.38
59971;BME280;45825;45.434;9.116;2023-04-02T05:21:56;99526.16;;;12.99;63.48
59971;BME280;45825;45.434;9.116;2023-04-02T05:24:59;99533.38;;;12.97;63.55
59971;BME280;45825;45.434;9.116;2023-04-02T05:27:44;99541.03;;;12.89;63.91
59971;BME280;45825;45.434;9.116;2023-04-02T05:32:57;99539.13;;;12.91;63.76
59971;BME280;45825;45.434;9.116;2023-04-02T05:35:29;99541.41;;;12.95;63.66
59971;BME280;45825;45.434;9.116;2023-04-02T05:37:56;99540.56;;;12.95;63.79
59971;BME280;45825;45.434;9.116;2023-04-02T05:40:29;99546.94;;;12.92;64.27
59971;BME280;45825;45.434;9.116;2023-04-02T05:42:57;99546.69;;;12.95;64.50
59971;BME280;45825;45.434;9.116;2023-04-02T05:45:29;99550.66;;;13.01;64.26
59971;BME280;45825;45.434;9.116;2023-04-02T05:47:56;99556.91;;;13.11;63.38
59971;BME280;45825;45.434;9.116;2023-04-02T05:50:32;99563.78;;;13.25;62.99
59971;BME280;45825;45.434;9.116;2023-04-02T05:53:07;99571.44;;;13.28;62.59
59971;BME280;45825;45.434;9.116;2023-04-02T05:58:12;99583.09;;;13.26;62.87
59971;BME280;45825;45.434;9.116;2023-04-02T06:03:41;99576.16;;;13.48;61.92
59971;BME280;45825;45.434;9.116;2023-04-02T06:06:16;99589.69;;;13.43;61.64
59971;BME280;45825;45.434;9.116;2023-04-02T06:08:50;99595.94;;;13.42;62.33
59971;BME280;45825;45.434;9.116;2023-04-02T06:11:20;99588.66;;;13.46;62.41
59971;BME280;45825;45.434;9.116;2023-04-02T06:13:48;99590.47;;;13.45;62.13
59971;BME280;45825;45.434;9.116;2023-04-02T06:16:14;99589.47;;;13.35;62.85
59971;BME280;45825;45.434;9.116;2023-04-02T06:18:40;99599.13;;;13.47;62.50
59971;BME280;45825;45.434;9.116;2023-04-02T06:21:07;99611.13;;;13.51;61.96
59971;BME280;45825;45.434;9.116;2023-04-02T06:26:35;99613.03;;;13.61;63.56
59971;BME280;45825;45.434;9.116;2023-04-02T06:29:17;99612.44;;;13.57;64.31
59971;BME280;45825;45.434;9.116;2023-04-02T06:31:47;99620.72;;;13.52;64.47
59971;BME280;45825;45.434;9.116;2023-04-02T06:34:25;99628.34;;;13.33;66.65
59971;BME280;45825;45.434;9.116;2023-04-02T06:36:58;99636.91;;;13.36;66.91
59971;BME280;45825;45.434;9.116;2023-04-02T06:39:25;99634.75;;;13.41;67.26
59971;BME280;45825;45.434;9.116;2023-04-02T06:42:14;99636.06;;;13.24;67.87
59971;BME280;45825;45.434;9.116;2023-04-02T06:44:40;99639.53;;;13.25;68.67
59971;BME280;45825;45.434;9.116;2023-04-02T06:47:33;99648.44;;;13.35;68.10
59971;BME280;45825;45.434;9.116;2023-04-02T06:53:00;99645.63;;;13.73;66.86
59971;BME280;45825;45.434;9.116;2023-04-02T06:55:46;99646.94;;;13.67;66.98
59971;BME280;45825;45.434;9.116;2023-04-02T06:58:16;99643.78;;;13.85;66.95
59971;BME280;45825;45.434;9.116;2023-04-02T07:00:44;99641.28;;;13.94;66.06
59971;BME280;45825;45.434;9.116;2023-04-02T07:03:21;99645.34;;;13.99;65.87
59971;BME280;45825;45.434;9.116;2023-04-02T07:05:47;99644.50;;;13.87;66.65
59971;BME280;45825;45.434;9.116;2023-04-02T07:08:13;99655.06;;;13.87;67.01
59971;BME280;45825;45.434;9.116;2023-04-02T07:10:38;99656.66;;;13.78;67.32
59971;BME280;45825;45.434;9.116;2023-04-02T07:13:04;99670.47;;;13.59;67.88
59971;BME280;45825;45.434;9.116;2023-04-02T07:15:30;99667.34;;;13.53;68.43
59971;BME280;45825;45.434;9.116;2023-04-02T07:17:57;99668.91;;;13.56;69.16
59971;BME280;45825;45.434;9.116;2023-04-02T07:20:29;99678.50;;;13.57;68.87
59971;BME280;45825;45.434;9.116;2023-04-02T07:22:55;99680.34;;;13.68;69.00
59971;BME280;45825;45.434;9.116;2023-04-02T07:25:21;99685.50;;;13.81;68.46
59971;BME280;45825;45.434;9.116;2023-04-02T07:27:47;99693.31;;;13.94;68.34
59971;BME280;45825;45.434;9.116;2023-04-02T07:30:13;99699.19;;;13.97;67.49
59971;BME280;45825;45.434;9.116;2023-04-02T07:32:38;99708.09;;;13.74;68.41
59971;BME280;45825;45.434;9.116;2023-04-02T07:35:04;99707.75;;;13.67;68.57
59971;BME280;45825;45.434;9.116;2023-04-02T07:37:30;99709.16;;;13.71;68.27
59971;BME280;45825;45.434;9.116;2023-04-02T07:39:56;99715.44;;;13.70;68.75
59971;BME280;45825;45.434;9.116;2023-04-02T07:42:21;99714.72;;;13.91;68.09
59971;BME280;45825;45.434;9.116;2023-04-02T07:44:46;99716.03;;;13.96;67.40
59971;BME280;45825;45.434;9.116;2023-04-02T07:47:12;99709.78;;;14.09;67.13
59971;BME280;45825;45.434;9.116;2023-04-02T07:49:37;99711.69;;;14.18;66.86
59971;BME280;45825;45.434;9.116;2023-04-02T07:52:03;99723.59;;;14.13;66.21
59971;BME280;45825;45.434;9.116;2023-04-02T07:54:28;99716.13;;;14.18;65.36
59971;BME280;45825;45.434;9.116;2023-04-02T07:56:54;99719.25;;;14.34;64.66
59971;BME280;45825;45.434;9.116;2023-04-02T07:59:20;99717.19;;;14.49;63.78
59971;BME280;45825;45.434;9.116;2023-04-02T08:01:45;99715.81;;;14.66;63.32
59971;BME280;45825;45.434;9.116;2023-04-02T08:04:20;99717.00;;;14.74;63.41
59971;BME280;45825;45.434;9.116;2023-04-02T08:06:47;99711.94;;;14.82;62.78
59971;BME280;45825;45.434;9.116;2023-04-02T08:09:14;99718.09;;;14.71;62.20
59971;BME280;45825;45.434;9.116;2023-04-02T08:11:40;99719.78;;;14.72;60.03
59971;BME280;45825;45.434;9.116;2023-04-02T08:14:07;99714.84;;;14.79;58.64
59971;BME280;45825;45.434;9.116;2023-04-02T08:16:50;99723.72;;;14.89;58.49
59971;BME280;45825;45.434;9.116;2023-04-02T08:19:16;99727.19;;;14.90;57.31
59971;BME280;45825;45.434;9.116;2023-04-02T08:21:43;99730.09;;;14.87;58.78
59971;BME280;45825;45.434;9.116;2023-04-02T08:24:09;99729.66;;;15.03;59.21
59971;BME280;45825;45.434;9.116;2023-04-02T08:26:34;99728.63;;;14.94;58.59
59971;BME280;45825;45.434;9.116;2023-04-02T08:29:00;99732.47;;;15.01;59.16
59971;BME280;45825;45.434;9.116;2023-04-02T08:31:26;99724.25;;;15.04;59.30
59971;BME280;45825;45.434;9.116;2023-04-02T08:33:53;99731.88;;;14.98;60.22
59971;BME280;45825;45.434;9.116;2023-04-02T08:36:27;99724.53;;;15.22;59.63
59971;BME280;45825;45.434;9.116;2023-04-02T08:38:53;99714.44;;;15.38;59.22
59971;BME280;45825;45.434;9.116;2023-04-02T08:41:21;99723.41;;;15.46;57.32
59971;BME280;45825;45.434;9.116;2023-04-02T08:46:29;99720.25;;;15.31;55.58
59971;BME280;45825;45.434;9.116;2023-04-02T08:49:01;99713.78;;;15.45;55.58
59971;BME280;45825;45.434;9.116;2023-04-02T08:51:32;99722.22;;;15.50;55.01
59971;BME280;45825;45.434;9.116;2023-04-02T08:54:01;99725.50;;;15.64;54.11
59971;BME280;45825;45.434;9.116;2023-04-02T08:56:38;99728.06;;;15.75;52.24
59971;BME280;45825;45.434;9.116;2023-04-02T08:59:37;99732.66;;;15.73;50.96
59971;BME280;45825;45.434;9.116;2023-04-02T09:04:46;99738.66;;;15.97;51.28
59971;BME280;45825;45.434;9.116;2023-04-02T09:07:13;99737.81;;;15.96;49.79
59971;BME280;45825;45.434;9.116;2023-04-02T09:09:40;99732.75;;;16.24;49.41
59971;BME280;45825;45.434;9.116;2023-04-02T09:12:16;99737.53;;;16.40;48.34
59971;BME280;45825;45.434;9.116;2023-04-02T09:14:45;99743.00;;;16.48;47.15
59971;BME280;45825;45.434;9.116;2023-04-02T09:17:21;99746.47;;;16.39;47.99
59971;BME280;45825;45.434;9.116;2023-04-02T09:19:53;99749.00;;;16.41;47.95
59971;BME280;45825;45.434;9.116;2023-04-02T09:22:25;99750.56;;;16.43;47.59
59971;BME280;45825;45.434;9.116;2023-04-02T09:24:52;99749.63;;;16.64;47.61
59971;BME280;45825;45.434;9.116;2023-04-02T09:27:19;99756.16;;;16.50;47.12
59971;BME280;45825;45.434;9.116;2023-04-02T09:29:48;99752.09;;;16.46;47.37
59971;BME280;45825;45.434;9.116;2023-04-02T09:35:23;99754.50;;;16.69;46.43
59971;BME280;45825;45.434;9.116;2023-04-02T09:43:20;99762.22;;;16.82;44.66
59971;BME280;45825;45.434;9.116;2023-04-02T09:46:05;99762.78;;;16.95;45.54
59971;BME280;45825;45.434;9.116;2023-04-02T09:48:53;99769.81;;;17.16;44.81
59971;BME280;45825;45.434;9.116;2023-04-02T09:51:24;99773.34;;;17.16;44.71
59971;BME280;45825;45.434;9.116;2023-04-02T09:56:33;99772.03;;;17.60;43.70
59971;BME280;45825;45.434;9.116;2023-04-02T10:06:55;99775.53;;;17.70;43.67
59971;BME280;45825;45.434;9.116;2023-04-02T10:09:34;99781.47;;;17.92;42.76
59971;BME280;45825;45.434;9.116;2023-04-02T10:12:02;99784.56;;;18.07;42.55
59971;BME280;45825;45.434;9.116;2023-04-02T10:14:32;99787.09;;;18.37;41.75
59971;BME280;45825;45.434;9.116;2023-04-02T10:17:16;99778.25;;;18.82;41.33
59971;BME280;45825;45.434;9.116;2023-04-02T10:19:47;99779.06;;;19.47;37.76
59971;BME280;45825;45.434;9.116;2023-04-02T10:22:17;99776.50;;;20.17;37.17
59971;BME280;45825;45.434;9.116;2023-04-02T10:24:43;99780.88;;;20.26;36.25
59971;BME280;45825;45.434;9.116;2023-04-02T10:27:39;99781.63;;;21.54;35.07
59971;BME280;45825;45.434;9.116;2023-04-02T10:32:49;99781.16;;;21.67;32.00
59971;BME280;45825;45.434;9.116;2023-04-02T10:43:27;99785.09;;;23.08;33.19
59971;BME280;45825;45.434;9.116;2023-04-02T10:46:18;99788.38;;;22.63;33.20
59971;BME280;45825;45.434;9.116;2023-04-02T10:56:41;99765.63;;;25.38;29.78
59971;BME280;45825;45.434;9.116;2023-04-02T10:59:23;99777.66;;;25.99;29.22
59971;BME280;45825;45.434;9.116;2023-04-02T11:01:51;99766.66;;;24.05;30.59
59971;BME280;45825;45.434;9.116;2023-04-02T11:04:25;99773.47;;;23.77;31.25
59971;BME280;45825;45.434;9.116;2023-04-02T11:07:00;99772.91;;;23.82;31.68
59971;BME280;45825;45.434;9.116;2023-04-02T11:09:29;99767.13;;;24.97;29.49
59971;BME280;45825;45.434;9.116;2023-04-02T11:11:58;99757.28;;;25.55;29.39
59971;BME280;45825;45.434;9.116;2023-04-02T11:14:28;99764.06;;;26.56;28.33
59971;BME280;45825;45.434;9.116;2023-04-02T11:16:56;99753.41;;;27.37;27.38
59971;BME280;45825;45.434;9.116;2023-04-02T11:19:29;99769.22;;;25.02;28.38
59971;BME280;45825;45.434;9.116;2023-04-02T11:37:38;99753.59;;;26.26;27.91
59971;BME280;45825;45.434;9.116;2023-04-02T11:42:50;99754.19;;;25.86;27.80
59971;BME280;45825;45.434;9.116;2023-04-02T11:50:44;99764.00;;;26.43;27.82
59971;BME280;45825;45.434;9.116;2023-04-02T11:55:36;99750.50;;;27.05;27.26
59971;BME280;45825;45.434;9.116;2023-04-02T11:58:09;99760.81;;;26.19;28.15
59971;BME280;45825;45.434;9.116;2023-04-02T12:11:32;99743.19;;;30.73;23.26
59971;BME280;45825;45.434;9.116;2023-04-02T12:13:58;99748.94;;;29.71;23.86
59971;BME280;45825;45.434;9.116;2023-04-02T12:16:24;99753.97;;;29.49;23.86
59971;BME280;45825;45.434;9.116;2023-04-02T12:18:55;99756.88;;;30.59;22.78
59971;BME280;45825;45.434;9.116;2023-04-02T12:21:26;99742.66;;;29.77;23.16
59971;BME280;45825;45.434;9.116;2023-04-02T12:23:54;99747.97;;;29.65;23.61
59971;BME280;45825;45.434;9.116;2023-04-02T12:26:33;99755.88;;;29.16;23.79
59971;BME280;45825;45.434;9.116;2023-04-02T12:31:56;99758.53;;;27.99;24.83
59971;BME280;45825;45.434;9.116;2023-04-02T12:34:25;99753.81;;;29.44;23.47
59971;BME280;45825;45.434;9.116;2023-04-02T12:36:56;99746.59;;;30.80;22.65
59971;BME280;45825;45.434;9.116;2023-04-02T12:39:24;99755.56;;;30.50;22.31
59971;BME280;45825;45.434;9.116;2023-04-02T12:41:49;99756.28;;;30.88;22.23
59971;BME280;45825;45.434;9.116;2023-04-02T12:44:18;99757.19;;;30.70;22.32
59971;BME280;45825;45.434;9.116;2023-04-02T12:46:44;99748.25;;;31.71;21.09
59971;BME280;45825;45.434;9.116;2023-04-02T12:49:21;99747.75;;;31.98;20.48
59971;BME280;45825;45.434;9.116;2023-04-02T12:51:48;99750.75;;;30.83;21.86
59971;BME280;45825;45.434;9.116;2023-04-02T12:54:15;99752.69;;;30.14;22.45
59971;BME280;45825;45.434;9.116;2023-04-02T12:56:47;99742.59;;;30.52;22.28
59971;BME280;45825;45.434;9.116;2023-04-02T12:59:27;99745.63;;;30.13;23.02
59971;BME280;45825;45.434;9.116;2023-04-02T13:01:55;99736.13;;;29.34;23.68
59971;BME280;45825;45.434;9.116;2023-04-02T13:04:21;99739.84;;;29.14;24.12
59971;BME280;45825;45.434;9.116;2023-04-02T13:06:49;99746.94;;;29.16;23.79
59971;BME280;45825;45.434;9.116;2023-04-02T13:09:27;99742.69;;;28.62;24.33
59971;BME280;45825;45.434;9.116;2023-04-02T13:11:53;99729.66;;;29.61;23.73
59971;BME280;45825;45.434;9.116;2023-04-02T13:14:19;99733.47;;;27.25;24.97
59971;BME280;45825;45.434;9.116;2023-04-02T13:16:47;99726.53;;;28.49;24.77
59971;BME280;45825;45.434;9.116;2023-04-02T13:21:47;99719.16;;;28.63;24.18
59971;BME280;45825;45.434;9.116;2023-04-02T13:24:20;99721.00;;;28.69;23.72
59971;BME280;45825;45.434;9.116;2023-04-02T13:26:46;99712.97;;;28.55;23.86
59971;BME280;45825;45.434;9.116;2023-04-02T13:29:23;99717.69;;;28.67;22.80
59971;BME280;45825;45.434;9.116;2023-04-02T13:31:50;99711.44;;;26.87;24.81
59971;BME280;45825;45.434;9.116;2023-04-02T13:34:16;99710.19;;;27.57;24.20
59971;BME280;45825;45.434;9.116;2023-04-02T13:36:42;99712.47;;;27.40;24.35
59971;BME280;45825;45.434;9.116;2023-04-02T13:39:08;99704.16;;;27.75;25.17
59971;BME280;45825;45.434;9.116;2023-04-02T13:41:51;99700.72;;;28.00;24.66
59971;BME280;45825;45.434;9.116;2023-04-02T13:44:24;99705.06;;;28.08;24.51
59971;BME280;45825;45.434;9.116;2023-04-02T13:46:53;99702.00;;;27.91;24.77
59971;BME280;45825;45.434;9.116;2023-04-02T13:49:19;99709.28;;;27.91;24.45
59971;BME280;45825;45.434;9.116;2023-04-02T13:51:49;99708.09;;;27.46;24.88
59971;BME280;45825;45.434;9.116;2023-04-02T13:54:46;99717.47;;;27.30;24.90
59971;BME280;45825;45.434;9.116;2023-04-02T13:57:13;99711.03;;;27.58;24.17
59971;BME280;45825;45.434;9.116;2023-04-02T13:59:39;99709.38;;;27.30;24.55
59971;BME280;45825;45.434;9.116;2023-04-02T14:02:18;99719.31;;;26.82;25.45
59971;BME280;45825;45.434;9.116;2023-04-02T14:04:48;99719.91;;;26.71;25.61
59971;BME280;45825;45.434;9.116;2023-04-02T14:07:32;99719.50;;;25.76;26.92
59971;BME280;45825;45.434;9.116;2023-04-02T14:10:30;99711.94;;;25.58;27.30
59971;BME280;45825;45.434;9.116;2023-04-02T14:18:34;99717.69;;;24.39;28.64
59971;BME280;45825;45.434;9.116;2023-04-02T14:21:16;99717.38;;;24.49;28.67
59971;BME280;45825;45.434;9.116;2023-04-02T14:26:22;99707.38;;;24.43;29.68
59971;BME280;45825;45.434;9.116;2023-04-02T14:29:06;99703.72;;;24.29;29.82
59971;BME280;45825;45.434;9.116;2023-04-02T14:31:42;99705.19;;;24.53;29.46
59971;BME280;45825;45.434;9.116;2023-04-02T14:34:28;99708.34;;;23.45;31.07
59971;BME280;45825;45.434;9.116;2023-04-02T14:42:37;99698.38;;;22.92;30.46
59971;BME280;45825;45.434;9.116;2023-04-02T14:50:37;99698.63;;;23.44;30.04
59971;BME280;45825;45.434;9.116;2023-04-02T14:53:07;99694.91;;;23.30;29.79
59971;BME280;45825;45.434;9.116;2023-04-02T14:55:40;99708.16;;;22.62;28.70
59971;BME280;45825;45.434;9.116;2023-04-02T14:58:17;99696.63;;;22.53;28.79
59971;BME280;45825;45.434;9.116;2023-04-02T15:00:58;99709.28;;;22.36;28.55
59971;BME280;45825;45.434;9.116;2023-04-02T15:03:41;99713.88;;;21.79;28.42
59971;BME280;45825;45.434;9.116;2023-04-02T15:06:12;99709.19;;;21.72;28.91
59971;BME280;45825;45.434;9.116;2023-04-02T15:08:51;99709.38;;;21.71;29.69
59971;BME280;45825;45.434;9.116;2023-04-02T15:11:21;99706.94;;;21.11;30.81
59971;BME280;45825;45.434;9.116;2023-04-02T15:14:06;99709.22;;;21.47;30.74
59971;BME280;45825;45.434;9.116;2023-04-02T15:16:35;99702.25;;;21.21;30.69
59971;BME280;45825;45.434;9.116;2023-04-02T15:19:03;99706.56;;;21.39;31.20
59971;BME280;45825;45.434;9.116;2023-04-02T15:22:13;99709.06;;;21.41;30.69
59971;BME280;45825;45.434;9.116;2023-04-02T15:32:37;99707.59;;;21.13;31.71
59971;BME280;45825;45.434;9.116;2023-04-02T15:35:30;99710.94;;;21.15;30.54
59971;BME280;45825;45.434;9.116;2023-04-02T15:38:22;99712.44;;;21.18;30.97
59971;BME280;45825;45.434;9.116;2023-04-02T15:56:29;99709.59;;;20.94;30.94
59971;BME280;45825;45.434;9.116;2023-04-02T16:12:46;99724.41;;;20.80;36.71
59971;BME280;45825;45.434;9.116;2023-04-02T16:15:23;99718.22;;;20.72;33.19
59971;BME280;45825;45.434;9.116;2023-04-02T16:18:00;99717.72;;;20.68;31.86
59971;BME280;45825;45.434;9.116;2023-04-02T16:20:31;99726.88;;;20.57;31.57
59971;BME280;45825;45.434;9.116;2023-04-02T16:23:06;99726.72;;;20.59;31.31
59971;BME280;45825;45.434;9.116;2023-04-02T16:25:42;99723.22;;;20.58;31.55
59971;BME280;45825;45.434;9.116;2023-04-02T16:52:37;99756.50;;;19.42;35.62
59971;BME280;45825;45.434;9.116;2023-04-02T16:55:20;99755.19;;;19.46;35.75
59971;BME280;45825;45.434;9.116;2023-04-02T16:57:58;99752.84;;;19.06;36.30
59971;BME280;45825;45.434;9.116;2023-04-02T17:00:36;99761.59;;;18.98;36.47
59971;BME280;45825;45.434;9.116;2023-04-02T17:06:03;99767.78;;;18.99;36.92
59971;BME280;45825;45.434;9.116;2023-04-02T17:08:37;99767.91;;;18.79;37.37